Impacts TAF Board INFO
FOR SITUATIONAL AWARENESS. NOT TO BE USED FOR FLIGHT PLANNING PURPOSES.
IDs:

KCVG - Cincinnati Intl, KY, US

Issued at 0530 UTC 28 Mar 2017
Updated at 0809 UTC 28 Mar 2017
Potential Impact None Slight Moderate High
Time0752Z 28/09Z 28/10Z 28/11Z 28/12Z 28/13Z 28/14Z 28/15Z 28/16Z 28/17Z 28/18Z 28/19Z 28/20Z 28/21Z
Type OBS PRVL PRVL PRVL PRVL PRVL PRVL PRVL PRVL PRVL PRVL PRVL PRVL PRVL
VIS 9 5 5 5 5 5 >6 >6 >6 >6 >6 >6 >6 >6
CIG 6 15 15 9 9 9 15 15 15 15 15 15 15 15
Cover OVC OVC OVC OVC OVC OVC OVC OVC OVC OVC OVC OVC OVC OVC
FltCat IFR MVFR MVFR IFR IFR IFR MVFR MVFR MVFR MVFR MVFR MVFR MVFR MVFR
WX -- BR VCSH BR VCSH BR BR BR -- -- -- -- -- -- -- --
WDir 210 250 250 300 300 300 330 330 330 330 330 330 330 330
WSpd 3 4 4 5 5 5 8 8 8 8 8 8 8 8
WGst -- -- -- -- -- -- -- -- -- -- -- -- -- --

Raw TAF
KCVG 280530Z 2806/2912 20004KT P6SM VCSH OVC050
  TEMPO 2806/2809 5SM -SHRA BR OVC012
  FM280900 25004KT 5SM BR VCSH OVC015
  FM281100 30005KT 5SM BR OVC009
  FM281400 33008KT P6SM OVC015
  FM290200 01007KT P6SM BKN025
  FM290800 01007KT P6SM BKN060


Raw METAR
KCVG 280752Z 21003KT 9SM OVC006 13/12 A2983 RMK AO2 SLP094 T01280122
KCVG 280729Z 00000KT 10SM BKN008 OVC095 13/12 A2982 RMK AO2 T01280122
KCVG 280652Z 20005KT 10SM FEW010 SCT044 OVC095 13/12 A2983 RMK AO2 SLP094 T01330122
KCVG 280623Z 21005KT 10SM BKN014 BKN090 OVC110 13/12 A2983 RMK AO2 T01280122
KCVG 280552Z 20006KT 10SM FEW025 BKN050 OVC090 13/13 A2983 RMK AO2 SLP097 60009 T01330128 10183 20133 56008

METAR Board
Radar Display
Forecast Discussion

FOR SITUATIONAL AWARENESS. NOT TO BE USED FOR FLIGHT PLANNING PURPOSES.

Page loaded:  08:09 UTC  |   01:09 AM Pacific  |   02:09 AM Mountain  |   03:09 AM Central  |   04:09 AM Eastern

 

ADVISORIES

FORECASTS

FORECASTS

OBSERVATIONS

USER TOOLS

ABOUT US